Latest Coastal Weather Observations for Creal Reef

IDQ60701

Issued at 12:12 am EST Thursday 29 June 2017 (issued every 10 minutes, with the page automatically refreshed every 10 minutes)

About coastal observations | Map of coastal stations | Coastal observations for QLD | Marine services | Other Formats
Station Details ID: 200736 Name: CREAL REEF Lat: -20.53 Lon: 150.38 Height: 1.7 m
Data from the previous 72 hours. | See also: Recent months for locations in Queensland
Date/Time
EST
Temp
°C
Wind Pressure Rain since
9am
mm
Weather Cloud Vis
km
Sea
Height
m
Swell
Dir  Spd
kts
Gust
kts
hPa Trend Height
m
Period
s
Dir
29/12:00am 23.4 ESE 11 13 1019.8 - - - - - - - - -
 
Date/Time
EST
Temp
°C
Wind Pressure Rain since
9am
mm
Weather Cloud Vis
km
Sea
Height
m
Swell
Dir  Spd
kts
Gust
kts
hPa Trend Height
m
Period
s
Dir
28/11:30pm 23.6 ESE 13 15 1020.0 - - - - - - - - -
28/11:20pm 23.6 ESE 13 - 1020.1 - - - - - - - - -
28/11:00pm 23.6 ESE 13 16 1020.3 - - - - - - - - -
28/10:30pm 23.6 ESE 14 16 1020.4 - - - - - - - - -
28/10:20pm 23.7 ESE 15 - 1020.3 - - - - - - - - -
28/10:00pm 23.7 ESE 14 16 1020.4 - - - - - - - - -
28/09:30pm 23.7 ESE 14 16 1020.5 - - - - - - - - -
28/09:20pm 23.7 ESE 14 - 1020.4 - - - - - - - - -
28/09:00pm 23.7 ESE 15 16 1020.5 - - - - - - - - -
28/08:30pm 23.6 ESE 14 15 1020.5 - - - - - - - - -
28/08:20pm 23.5 ESE 14 - 1020.3 - - - - - - - - -
28/08:00pm 23.6 ESE 15 17 1020.3 - - - - - - - - -
28/07:30pm 23.6 ESE 15 17 1020.1 - - - - - - - - -
28/07:20pm 23.6 ESE 15 - 1019.9 - - - - - - - - -
28/07:00pm 23.6 ESE 16 19 1019.8 - - - - - - - - -
28/06:30pm 23.6 ESE 15 17 1019.4 - - - - - - - - -
28/06:20pm 23.6 ESE 15 - 1019.2 - - - - - - - - -
28/06:00pm 23.7 ESE 15 17 1019.2 - - - - - - - - -
28/05:30pm 23.7 ESE 15 18 1019.1 - - - - - - - - -
28/05:20pm 23.7 ESE 16 - 1019.0 - - - - - - - - -
28/05:00pm 23.7 ESE 15 17 1018.9 - - - - - - - - -
28/04:30pm 23.8 ESE 16 18 1018.8 - - - - - - - - -
28/04:20pm 23.8 ESE 16 - 1018.6 - - - - - - - - -
28/04:00pm 23.9 ESE 16 19 1018.6 - - - - - - - - -
28/03:30pm 23.8 ESE 16 18 1018.4 - - - - - - - - -
28/03:20pm 23.9 ESE 15 - 1018.3 - - - - - - - - -
28/03:00pm 23.8 E 15 17 1018.4 - - - - - - - - -
28/02:30pm 23.8 ESE 15 18 1018.4 - - - - - - - - -
28/02:20pm 23.8 E 16 - 1018.3 - - - - - - - - -
28/02:00pm 23.9 ESE 16 18 1018.5 - - - - - - - - -
28/01:30pm 23.8 ESE 16 18 1018.6 - - - - - - - - -
28/01:20pm 23.8 ESE 16 - 1018.6 - - - - - - - - -
28/01:00pm 23.8 ESE 16 18 1018.9 - - - - - - - - -
28/12:30pm 23.8 ESE 17 18 1019.3 - - - - - - - - -
28/12:20pm 23.8 ESE 16 - 1019.3 - - - - - - - - -
28/12:00pm 23.8 ESE 16 18 1019.7 - - - - - - - - -
28/11:30am 23.8 E 18 20 1020.0 - - - - - - - - -
28/11:20am 23.8 E 17 - 1020.0 - - - - - - - - -
28/11:00am 23.9 E 18 21 1020.2 - - - - - - - - -
28/10:30am 23.9 E 19 21 1020.4 - - - - - - - - -
28/10:20am 23.9 E 18 - 1020.3 - - - - - - - - -
28/10:00am 23.9 E 20 22 1020.3 - - - - - - - - -
28/09:30am 24.0 E 20 23 1020.4 - - - - - - - - -
28/09:20am 24.0 E 20 - 1020.3 - - - - - - - - -
28/09:00am 24.0 E 20 23 1020.4 - - - - - - - - -
28/08:30am 23.8 E 19 22 1020.1 - - - - - - - - -
28/08:20am 23.7 E 18 - 1020.0 - - - - - - - - -
28/08:00am 23.7 E 18 22 1019.9 - - - - - - - - -
28/07:30am 23.6 E 20 22 1019.5 - - - - - - - - -
28/07:20am 23.6 E 20 - 1019.3 - - - - - - - - -
28/07:00am 23.5 E 20 23 1019.2 - - - - - - - - -
28/06:30am 23.5 E 18 21 1019.0 - - - - - - - - -
28/06:20am 23.6 E 19 - 1018.8 - - - - - - - - -
28/06:00am 23.4 E 20 22 1018.6 - - - - - - - - -
28/05:30am 23.5 E 19 22 1018.5 - - - - - - - - -
28/05:20am 23.4 E 19 - 1018.4 - - - - - - - - -
28/05:00am 23.5 E 19 22 1018.6 - - - - - - - - -
28/04:30am 23.6 E 19 22 1018.6 - - - - - - - - -
28/04:20am 23.5 E 19 - 1018.5 - - - - - - - - -
28/04:00am 23.6 E 19 22 1018.7 - - - - - - - - -
28/03:30am 23.5 E 17 21 1018.8 - - - - - - - - -
28/03:20am 23.3 E 18 - 1018.7 - - - - - - - - -
28/03:00am 23.5 E 19 21 1018.9 - - - - - - - - -
28/02:30am 23.4 E 18 21 1019.0 - - - - - - - - -
28/02:20am 23.4 E 17 - 1018.9 - - - - - - - - -
28/02:00am 23.4 E 18 21 1019.2 - - - - - - - - -
28/01:30am 23.5 E 19 21 1019.4 - - - - - - - - -
28/01:20am 23.5 E 19 - 1019.4 - - - - - - - - -
28/01:00am 23.4 ESE 15 17 1019.7 - - - - - - - - -
28/12:30am 23.4 E 18 21 1019.9 - - - - - - - - -
28/12:20am 23.4 ESE 17 - 1019.9 - - - - - - - - -
28/12:00am 23.3 ESE 17 19 1020.1 - - - - - - - - -
 
Date/Time
EST
Temp
°C
Wind Pressure Rain since
9am
mm
Weather Cloud Vis
km
Sea
Height
m
Swell
Dir  Spd
kts
Gust
kts
hPa Trend Height
m
Period
s
Dir
27/11:30pm 23.2 ESE 18 22 1020.2 - - - - - - - - -
27/11:20pm 23.4 ESE 18 - 1020.1 - - - - - - - - -
27/11:00pm 23.3 ESE 18 21 1020.2 - - - - - - - - -
27/10:30pm 23.4 ESE 19 22 1020.3 - - - - - - - - -
27/10:20pm 23.3 ESE 19 - 1020.3 - - - - - - - - -
27/10:00pm 23.2 ESE 19 23 1020.5 - - - - - - - - -
27/09:30pm 23.3 ESE 20 23 1020.4 - - - - - - - - -
27/09:20pm 23.2 ESE 20 - 1020.2 - - - - - - - - -
27/09:00pm 23.1 ESE 20 22 1020.3 - - - - - - - - -
27/08:30pm 23.2 ESE 21 25 1020.2 - - - - - - - - -
27/08:20pm 23.2 ESE 21 - 1020.2 - - - - - - - - -
27/08:00pm 23.3 SE 21 25 1020.1 - - - - - - - - -
27/07:30pm 23.2 ESE 20 22 1020.1 - - - - - - - - -
27/07:20pm 23.2 ESE 21 - 1019.9 - - - - - - - - -
27/07:00pm 23.2 ESE 20 22 1019.9 - - - - - - - - -
27/06:30pm 23.3 ESE 21 23 1019.8 - - - - - - - - -
27/06:20pm 23.3 SE 22 - 1019.7 - - - - - - - - -
27/06:00pm 23.3 SE 21 24 1019.6 - - - - - - - - -
27/05:30pm 23.3 ESE 21 25 1019.5 - - - - - - - - -
27/05:20pm 23.3 SE 20 - 1019.4 - - - - - - - - -
27/05:00pm 23.4 SE 21 24 1019.4 - - - - - - - - -
27/04:30pm 23.6 SE 21 24 1019.1 - - - - - - - - -
27/04:20pm 23.5 ESE 20 - 1019.0 - - - - - - - - -
27/04:00pm 23.5 SE 20 24 1018.8 - - - - - - - - -
27/03:30pm 23.5 SE 20 23 1018.7 - - - - - - - - -
27/03:20pm 23.5 SE 20 - 1018.4 - - - - - - - - -
27/03:00pm 23.5 SE 20 23 1018.4 - - - - - - - - -
27/02:30pm 23.5 ESE 21 23 1018.5 - - - - - - - - -
27/02:20pm 23.5 ESE 20 - 1018.4 - - - - - - - - -
27/02:00pm 23.4 ESE 21 24 1018.6 - - - - - - - - -
27/01:30pm 23.4 ESE 21 24 1018.8 - - - - - - - - -
27/01:20pm 23.5 ESE 22 - 1018.8 - - - - - - - - -
27/01:00pm 23.4 ESE 20 23 1019.1 - - - - - - - - -
27/12:30pm 23.5 ESE 20 25 1019.4 - - - - - - - - -
27/12:20pm 23.2 ESE 18 - 1019.5 - - - - - - - - -
27/12:00pm 22.9 ESE 23 27 1019.8 - - - - - - - - -
27/11:30am 23.3 ESE 20 23 1020.2 - - - - - - - - -
27/11:20am 23.4 ESE 21 - 1020.1 - - - - - - - - -
27/11:00am 23.3 SE 21 24 1020.4 - - - - - - - - -
27/10:30am 23.3 SE 20 24 1020.4 - - - - - - - - -
27/10:20am 23.6 SE 19 - 1020.3 - - - - - - - - -
27/10:00am 23.6 SE 19 21 1020.4 - - - - - - - - -
27/09:30am 23.5 ESE 19 21 1020.4 - - - - - - - - -
27/09:20am 23.4 SE 15 - 1020.3 - - - - - - - - -
27/09:00am 22.8 SE 15 18 1020.3 - - - - - - - - -
27/08:30am 23.0 SSE 15 18 1020.1 - - - - - - - - -
27/08:20am 22.8 SSE 15 - 1020.0 - - - - - - - - -
27/08:00am 22.9 SSE 15 18 1019.8 - - - - - - - - -
27/07:30am 22.8 SSE 15 18 1019.5 - - - - - - - - -
27/07:20am 22.8 SSE 14 - 1019.1 - - - - - - - - -
27/07:00am 22.7 SSE 17 19 1019.2 - - - - - - - - -
27/06:30am 23.0 SE 16 18 1018.9 - - - - - - - - -
27/06:20am 22.9 SE 17 - 1018.7 - - - - - - - - -
27/06:00am 23.0 SE 17 19 1018.6 - - - - - - - - -
27/05:30am 23.1 SE 17 20 1018.6 - - - - - - - - -
27/05:20am 23.1 SE 18 - 1018.5 - - - - - - - - -
27/05:00am 23.2 SE 19 21 1018.3 - - - - - - - - -
27/04:30am 23.2 SE 17 19 1018.2 - - - - - - - - -
27/04:20am 23.1 SE 16 - 1018.2 - - - - - - - - -
27/04:00am 23.1 ESE 17 19 1018.4 - - - - - - - - -
27/03:30am 23.2 ESE 17 21 1018.5 - - - - - - - - -
27/03:20am 23.3 ESE 16 - 1018.5 - - - - - - - - -
27/03:00am 23.0 SE 18 20 1018.7 - - - - - - - - -
27/02:30am 23.1 SE 18 20 1018.7 - - - - - - - - -
27/02:20am 23.0 SE 17 - 1018.5 - - - - - - - - -
27/02:00am 23.0 SE 17 20 1018.8 - - - - - - - - -
27/01:30am 23.1 SE 16 19 1019.1 - - - - - - - - -
27/01:20am 23.1 SE 16 - 1019.0 - - - - - - - - -
27/01:00am 23.0 SE 16 20 1019.4 - - - - - - - - -
27/12:30am 23.0 SE 16 19 1019.7 - - - - - - - - -
27/12:20am 23.0 SE 15 - 1019.6 - - - - - - - - -
27/12:00am 22.9 SE 15 18 1019.6 - - - - - - - - -
 
Date/Time
EST
Temp
°C
Wind Pressure Rain since
9am
mm
Weather Cloud Vis
km
Sea
Height
m
Swell
Dir  Spd
kts
Gust
kts
hPa Trend Height
m
Period
s
Dir
26/11:30pm 22.9 SE 16 19 1019.8 - - - - - - - - -
26/11:20pm 23.0 SE 15 - 1019.8 - - - - - - - - -
26/11:00pm 22.9 SE 16 19 1019.9 - - - - - - - - -
26/10:30pm 23.0 SE 16 19 1019.9 - - - - - - - - -
26/10:20pm 23.0 SE 16 - 1019.7 - - - - - - - - -
26/10:00pm 23.0 SE 15 19 1020.0 - - - - - - - - -
26/09:30pm 22.9 SE 16 18 1019.8 - - - - - - - - -
26/09:20pm 22.8 SE 16 - 1019.7 - - - - - - - - -
26/09:00pm 22.9 SE 17 19 1019.7 - - - - - - - - -
26/08:30pm 22.8 SE 17 19 1019.6 - - - - - - - - -
26/08:20pm 22.9 SE 16 - 1019.4 - - - - - - - - -
26/08:00pm 22.9 SSE 16 19 1019.4 - - - - - - - - -
26/07:30pm 22.9 SE 16 18 1019.2 - - - - - - - - -
26/07:20pm 22.9 SE 16 - 1019.0 - - - - - - - - -
26/07:00pm 22.8 SE 15 17 1019.0 - - - - - - - - -
26/06:30pm 22.9 SE 14 16 1018.8 - - - - - - - - -
26/06:20pm 23.0 SE 14 - 1018.6 - - - - - - - - -
26/06:00pm 23.0 SE 13 15 1018.4 - - - - - - - - -
26/05:30pm 23.1 SE 14 16 1018.2 - - - - - - - - -
26/05:20pm 23.1 SE 14 - 1018.1 - - - - - - - - -
26/05:00pm 23.2 SE 14 17 1018.2 - - - - - - - - -
26/04:30pm 23.5 SE 13 15 1018.1 - - - - - - - - -
26/04:20pm 23.5 ESE 14 - 1017.8 - - - - - - - - -
26/04:00pm 23.6 ESE 13 15 1017.8 - - - - - - - - -
26/03:30pm 23.6 SE 13 15 1017.6 - - - - - - - - -
26/03:20pm 23.7 ESE 12 - 1017.5 - - - - - - - - -
26/03:00pm 23.5 SE 11 13 1017.7 - - - - - - - - -
26/02:30pm 23.4 ESE 11 13 1017.7 - - - - - - - - -
26/02:20pm 23.5 SE 11 - 1017.6 - - - - - - - - -
26/02:00pm 23.4 SE 11 13 1017.9 - - - - - - - - -
26/01:30pm 23.5 ESE 11 14 1018.0 - - - - - - - - -
26/01:20pm 23.5 ESE 12 - 1018.0 - - - - - - - - -
26/01:00pm 23.4 ESE 13 15 1018.2 - - - - - - - - -
26/12:30pm 23.3 ESE 14 15 1018.5 - - - - - - - - -
26/12:20pm 23.4 ESE 14 - 1018.5 - - - - - - - - -
26/12:00pm 23.3 ESE 14 16 1018.9 - - - - - - - - -
26/11:30am 23.4 ESE 14 16 1019.1 - - - - - - - - -
26/11:20am 23.3 ESE 14 - 1019.1 - - - - - - - - -
26/11:00am 23.3 SE 15 17 1019.4 - - - - - - - - -
26/10:30am 23.3 SE 15 18 1019.3 - - - - - - - - -
26/10:20am 23.2 ESE 15 - 1019.2 - - - - - - - - -
26/10:00am 23.2 SE 13 15 1019.3 - - - - - - - - -
26/09:30am 23.0 SE 14 18 1019.1 - - - - - - - - -
26/09:20am 23.0 SSE 15 - 1019.0 - - - - - - - - -
26/09:00am 22.9 SE 15 17 1019.1 - - - - - - - - -
26/08:30am 22.9 SE 14 17 1019.2 - - - - - - - - -
26/08:20am 23.0 SSE 14 - 1019.0 - - - - - - - - -
26/08:00am 23.1 SE 14 17 1018.8 - - - - - - - - -
26/07:30am 22.9 SE 15 17 1018.4 - - - - - - - - -
26/07:20am 22.8 SE 15 - 1018.1 - - - - - - - - -
26/07:00am 22.5 SE 14 16 1017.9 - - - - - - - - -
26/06:30am 22.4 SE 14 16 1017.6 - - - - - - - - -
26/06:20am 22.4 SE 13 - 1017.4 - - - - - - - - -
26/06:00am 22.4 SE 13 15 1017.3 - - - - - - - - -
26/05:30am 22.4 SE 13 16 1017.1 - - - - - - - - -
26/05:20am 22.4 SE 13 - 1017.0 - - - - - - - - -
26/05:00am 22.6 SE 14 17 1017.0 - - - - - - - - -
26/04:30am 22.4 SE 13 16 1016.9 - - - - - - - - -
26/04:20am 22.4 SE 14 - 1016.6 - - - - - - - - -
26/04:00am 22.5 SE 14 16 1016.6 - - - - - - - - -
26/03:30am 22.6 SE 14 17 1016.7 - - - - - - - - -
26/03:20am 22.4 SE 14 - 1016.6 - - - - - - - - -
26/03:00am 22.5 SE 14 17 1016.7 - - - - - - - - -
26/02:30am 22.4 SE 15 17 1016.9 - - - - - - - - -
26/02:20am 22.6 SE 15 - 1016.9 - - - - - - - - -
26/02:00am 22.4 SE 14 16 1017.1 - - - - - - - - -
26/01:30am 22.5 SE 14 15 1017.2 - - - - - - - - -
26/01:20am 22.7 SE 13 - 1017.2 - - - - - - - - -
26/01:00am 22.5 SE 14 16 1017.4 - - - - - - - - -
26/12:30am 22.6 ESE 14 16 1017.7 - - - - - - - - -
26/12:20am 22.6 SE 14 - 1017.7 - - - - - - - - -

Other Formats:

Comma delimited format used in spreadsheet applications
http://www.bom.gov.au/fwo/IDQ60701/IDQ60701.94371.axf

JavaScript Object Notation format (JSON) in row-major order
http://www.bom.gov.au/fwo/IDQ60701/IDQ60701.94371.json